Chantilly, VA (20151)

8:13 PM EDT on June 03, 2015 (GMT -0400)
Ridings at Blue Springs | | Change Station
CLOSE
Current Station
Personal Weather Station
Location: Chantilly, VA
Elevation: 303 ft
Nearby Weather Stations

Elev 303 ft 38.90 °N, 77.48 °W | Updated 55 seconds ago

Overcast
Overcast
60.0 °F
Feels Like 60.0 °F
N
0.0
Wind Variable Wind from South
Gusts 0.0 mph

Today
High -- | Low -- °F
--% Chance of Precip.
Yesterday
High -- | Low -- °F
Precip. -- in
5:45 AM 8:30 PM
Full, 98% visible
Pressure 30.16 in
Visibility 2.5 miles
Clouds Overcast 1100 ft
Dew Point 57 °F
Humidity 90%
Rainfall 0.02 in
Snow Depth Not available.
UV 0 out of 12
Pollen .80 out of 12
Air Quality Not available.
Flu Activity Sporadic
SPECI KIAD 040005Z 00000KT 2 1/2SM -DZ BR OVC011 15/13 A3016 RMK AO2 P0000

More Conditions Fewer Conditions

Pressure 30.16 in
Visibility 2.5 miles
Clouds Overcast 1100 ft
Dew Point 57 °F
Humidity 90%
Rainfall 0.02 in
Snow Depth Not available.
UV 0 out of 12
Pollen .80 out of 12
Air Quality Not available.
Flu Activity Sporadic
SPECI KIAD 040005Z 00000KT 2 1/2SM -DZ BR OVC011 15/13 A3016 RMK AO2 P0000

More Conditions Fewer Conditions

10-Day Weather Forecast

×

Almanac

Astronomy

Jun. 03, 2015 Rise Set
Actual Time
Civil Twilight
Nautical Twilight
Astronomical Twilight
Moon
Length of Visible Light
Length of Day
Tomorrow will be .
, % of the Moon is Illuminated

Today's Extremes

State Highs State Lows

Community

WunderPhotos

Upload Photos

1,826,310 photos uploaded!

WunderBlogs® & News

Nearby

Air Quality

  Air Quality AQ Index Pollutant
Not available.

Snow Depth

Station Depth Elevation

Earthquake Activity

City Distance Mag. Time & Date
Minimum magnitude displayed is 2.5.

Coastal Water Temperatures

Place Temperature

Stations

Nearby Weather Stations

Station Location Temp. Windchill Dew Point Humidity Wind Precip. Elev Updated Type